createdAt,value
2022-12-15T00:00:00.935Z,3.97
2022-12-15T00:02:47.424Z,3.90
2022-12-15T00:05:34.392Z,4.63
2022-12-15T00:08:26.003Z,4.13
2022-12-15T00:11:11.078Z,4.55
2022-12-15T00:13:56.534Z,3.83
2022-12-15T00:16:41.792Z,4.03
2022-12-15T00:19:27.231Z,3.30
2022-12-15T00:22:14.000Z,4.38
2022-12-15T00:24:59.211Z,4.25
2022-12-15T00:27:44.587Z,3.13
2022-12-15T00:30:31.544Z,5.03
2022-12-15T00:33:16.839Z,4.50
2022-12-15T00:36:02.222Z,3.38
2022-12-15T00:38:44.129Z,3.97
2022-12-15T00:41:13.651Z,4.03
2022-12-15T00:43:41.503Z,4.03
2022-12-15T00:46:27.816Z,4.53
2022-12-15T00:48:56.253Z,3.42
2022-12-15T00:51:41.363Z,4.35
2022-12-15T00:54:27.850Z,3.40
2022-12-15T00:57:13.241Z,3.97
2022-12-15T00:59:58.395Z,3.85
2022-12-15T01:02:43.860Z,3.72
2022-12-15T01:05:29.123Z,3.67
2022-12-15T01:08:14.314Z,3.67
2022-12-15T01:11:01.562Z,3.85
2022-12-15T01:13:49.571Z,4.18
2022-12-15T01:16:35.665Z,3.08
2022-12-15T01:19:21.468Z,3.67
2022-12-15T01:21:49.596Z,3.30
2022-12-15T01:24:17.307Z,2.75
2022-12-15T01:26:46.338Z,3.58
2022-12-15T01:29:14.183Z,3.72
2022-12-15T01:31:43.312Z,4.32
2022-12-15T01:34:11.190Z,3.45
2022-12-15T01:36:38.902Z,4.15
2022-12-15T01:39:06.635Z,3.78
2022-12-15T01:41:33.468Z,4.03
2022-12-15T01:44:18.659Z,4.25
2022-12-15T01:46:48.286Z,3.92
2022-12-15T01:49:21.699Z,3.75
2022-12-15T01:51:56.605Z,3.15
2022-12-15T01:54:30.470Z,4.03
2022-12-15T01:57:05.698Z,2.85
2022-12-15T01:59:39.842Z,3.20
2022-12-15T02:02:08.166Z,2.53
2022-12-15T02:04:37.717Z,3.50
2022-12-15T02:07:05.641Z,3.40
2022-12-15T02:09:33.733Z,3.58
2022-12-15T02:12:16.510Z,3.67
2022-12-15T02:15:05.643Z,3.03
2022-12-15T02:17:45.545Z,3.85
2022-12-15T02:20:40.914Z,3.95
2022-12-15T02:27:13.360Z,2.38
2022-12-15T02:30:23.452Z,2.85
2022-12-15T02:33:17.712Z,4.35
2022-12-15T02:35:57.734Z,2.47
2022-12-15T02:38:37.491Z,3.30
2022-12-15T02:41:27.732Z,3.05
2022-12-15T02:43:55.529Z,3.95
2022-12-15T02:46:36.335Z,3.47
2022-12-15T02:49:23.369Z,2.70
2022-12-15T02:52:10.811Z,3.40
2022-12-15T02:55:00.215Z,3.90
2022-12-15T02:57:42.731Z,3.13
2022-12-15T03:00:13.687Z,3.05
2022-12-15T03:02:50.310Z,3.90
2022-12-15T03:05:20.671Z,2.38
2022-12-15T03:07:52.378Z,2.83
2022-12-15T03:10:24.345Z,3.17
2022-12-15T03:12:54.356Z,2.80
2022-12-15T03:15:22.295Z,3.67
2022-12-15T03:17:51.418Z,3.40
2022-12-15T03:20:19.180Z,2.47
2022-12-15T03:22:47.028Z,3.22
2022-12-15T03:25:14.799Z,3.28
2022-12-15T03:27:44.188Z,3.00
2022-12-15T03:30:13.538Z,3.00
2022-12-15T03:32:41.556Z,3.90
2022-12-15T03:35:12.800Z,4.07
2022-12-15T03:37:40.727Z,3.25
2022-12-15T03:40:10.390Z,3.65
2022-12-15T03:42:50.290Z,3.13
2022-12-15T03:45:20.314Z,3.45
2022-12-15T03:47:48.879Z,2.38
2022-12-15T03:50:21.999Z,4.13
2022-12-15T03:52:53.032Z,3.38
2022-12-15T03:55:21.583Z,3.05
2022-12-15T03:57:49.406Z,2.92
2022-12-15T04:00:19.419Z,3.83
2022-12-15T04:02:50.546Z,3.80
2022-12-15T04:05:22.446Z,3.33
2022-12-15T04:07:50.376Z,3.30
2022-12-15T04:10:18.732Z,3.70
2022-12-15T04:12:46.489Z,3.50
2022-12-15T04:15:16.598Z,3.55
2022-12-15T04:17:44.290Z,3.42
2022-12-15T04:20:13.018Z,2.40
2022-12-15T04:22:45.120Z,3.80
2022-12-15T04:25:34.831Z,3.30
2022-12-15T04:28:20.901Z,3.13
2022-12-15T04:31:11.281Z,2.95
2022-12-15T04:34:03.019Z,2.85
2022-12-15T04:36:49.825Z,3.17
2022-12-15T04:39:36.583Z,3.38
2022-12-15T04:42:22.447Z,2.75
2022-12-15T04:45:16.953Z,2.38
2022-12-15T04:48:06.269Z,2.75
2022-12-15T04:50:51.839Z,2.08
2022-12-15T04:53:38.377Z,1.63
2022-12-15T04:56:29.812Z,2.13
2022-12-15T04:59:15.657Z,1.95
2022-12-15T05:02:01.811Z,1.85
2022-12-15T05:04:47.347Z,2.67
2022-12-15T05:07:33.536Z,3.00
2022-12-15T05:10:18.871Z,2.90
2022-12-15T05:13:05.468Z,2.60
2022-12-15T05:15:53.243Z,2.88
2022-12-15T05:18:39.435Z,3.78
2022-12-15T05:21:25.341Z,3.58
2022-12-15T05:24:11.170Z,2.92
2022-12-15T05:26:56.531Z,3.63
2022-12-15T05:29:43.055Z,3.38
2022-12-15T05:32:11.624Z,3.15
2022-12-15T05:34:39.366Z,3.13
2022-12-15T05:37:07.564Z,2.78
2022-12-15T05:39:36.067Z,2.97
2022-12-15T05:42:04.436Z,3.03
2022-12-15T05:44:34.339Z,3.28
2022-12-15T05:47:02.146Z,2.72
2022-12-15T05:49:30.022Z,2.75
2022-12-15T05:51:58.323Z,2.03
2022-12-15T05:54:26.115Z,2.50
2022-12-15T05:56:53.915Z,3.05
2022-12-15T05:59:21.829Z,3.60
2022-12-15T06:01:51.159Z,2.53
2022-12-15T06:04:19.420Z,2.08
2022-12-15T06:06:47.268Z,3.25
2022-12-15T06:09:15.001Z,3.00
2022-12-15T06:11:42.718Z,2.45
2022-12-15T06:14:10.930Z,2.85
2022-12-15T06:16:49.771Z,2.60
2022-12-15T06:19:20.757Z,2.75
2022-12-15T06:21:48.867Z,2.00
2022-12-15T06:24:16.654Z,1.92
2022-12-15T06:26:44.734Z,2.05
2022-12-15T06:29:15.447Z,2.05
2022-12-15T06:31:44.111Z,1.90
2022-12-15T06:34:15.504Z,1.35
2022-12-15T06:36:45.045Z,3.13
2022-12-15T06:39:15.507Z,2.17
2022-12-15T06:41:45.173Z,2.20
2022-12-15T06:44:15.966Z,3.20
2022-12-15T06:46:45.973Z,1.70
2022-12-15T06:49:14.306Z,1.73
2022-12-15T06:51:43.879Z,2.10
2022-12-15T06:54:13.027Z,2.38
2022-12-15T06:56:41.036Z,1.90
2022-12-15T06:59:09.500Z,2.08
2022-12-15T07:01:37.498Z,1.50
2022-12-15T07:04:06.065Z,1.85
2022-12-15T07:06:37.798Z,1.88
2022-12-15T07:09:08.332Z,1.63
2022-12-15T07:11:37.926Z,2.03
2022-12-15T07:14:05.855Z,1.65
2022-12-15T07:16:34.271Z,1.65
2022-12-15T07:19:02.521Z,1.70
2022-12-15T07:21:30.654Z,2.25
2022-12-15T07:23:59.337Z,1.77
2022-12-15T07:26:27.958Z,1.52
2022-12-15T07:28:57.235Z,1.75
2022-12-15T07:31:25.128Z,1.70
2022-12-15T07:33:54.349Z,1.90
2022-12-15T07:36:22.098Z,1.38
2022-12-15T07:38:51.019Z,1.45
2022-12-15T07:41:21.364Z,1.63
2022-12-15T07:43:49.587Z,1.30
2022-12-15T07:46:19.608Z,1.58
2022-12-15T07:48:50.114Z,1.13
2022-12-15T07:51:20.921Z,1.45
2022-12-15T07:53:50.780Z,1.88
2022-12-15T07:56:20.137Z,1.88
2022-12-15T07:58:48.354Z,1.88
2022-12-15T08:01:18.551Z,1.35
2022-12-15T08:03:46.683Z,1.42
2022-12-15T08:06:16.533Z,1.92
2022-12-15T08:08:50.360Z,2.28
2022-12-15T08:11:21.331Z,1.25
2022-12-15T08:14:02.475Z,1.35
2022-12-15T08:16:34.363Z,1.70
2022-12-15T08:19:05.148Z,1.30
2022-12-15T08:21:33.365Z,1.88
2022-12-15T08:24:01.734Z,1.48
2022-12-15T08:26:31.266Z,1.58
2022-12-15T08:29:40.356Z,2.47
2022-12-15T08:31:53.995Z,1.30
2022-12-15T08:34:22.317Z,2.35
2022-12-15T08:36:50.154Z,2.13
2022-12-15T08:39:18.134Z,1.45
2022-12-15T08:41:45.871Z,1.85
2022-12-15T08:44:13.750Z,2.50
2022-12-15T08:46:41.577Z,2.33
2022-12-15T08:49:13.291Z,1.63
2022-12-15T08:51:44.308Z,1.95
2022-12-15T08:54:12.184Z,1.92
2022-12-15T08:56:39.920Z,2.28
2022-12-15T08:59:07.827Z,3.28
2022-12-15T09:01:39.239Z,2.83
2022-12-15T09:04:08.459Z,2.03
2022-12-15T09:06:37.900Z,2.53
2022-12-15T09:09:09.025Z,2.72
2022-12-15T09:11:36.962Z,2.78
2022-12-15T09:14:05.158Z,1.73
2022-12-15T09:16:33.038Z,2.65
2022-12-15T09:19:01.452Z,2.83
2022-12-15T09:21:31.984Z,2.92
2022-12-15T09:24:03.566Z,1.92
2022-12-15T09:26:33.502Z,2.10
2022-12-15T09:29:02.365Z,1.92
2022-12-15T09:31:33.086Z,1.95
2022-12-15T09:34:02.462Z,2.25
2022-12-15T09:36:32.453Z,1.58
2022-12-15T09:39:03.157Z,2.60
2022-12-15T09:41:34.058Z,1.95
2022-12-15T09:44:07.110Z,2.88
2022-12-15T09:46:52.386Z,2.10
2022-12-15T09:49:40.107Z,2.53
2022-12-15T09:52:17.040Z,2.40
2022-12-15T09:54:47.159Z,1.90
2022-12-15T09:57:36.938Z,2.75
2022-12-15T10:00:22.288Z,2.80
2022-12-15T10:03:30.787Z,1.98
2022-12-15T10:06:18.379Z,2.45
2022-12-15T10:08:55.102Z,1.67
2022-12-15T10:11:41.364Z,2.15
2022-12-15T10:14:26.391Z,2.45
2022-12-15T10:19:41.194Z,2.97
2022-12-15T10:22:20.239Z,2.63
2022-12-15T10:28:11.667Z,1.92
2022-12-15T10:31:02.229Z,2.03
2022-12-15T10:33:36.398Z,2.05
2022-12-15T10:36:12.491Z,1.95
2022-12-15T10:38:45.188Z,1.65
2022-12-15T10:41:16.226Z,2.40
2022-12-15T10:43:48.444Z,1.73
2022-12-15T10:46:21.822Z,1.58
2022-12-15T10:48:52.317Z,1.88
2022-12-15T10:51:28.929Z,2.70
2022-12-15T10:54:09.355Z,2.05
2022-12-15T10:56:50.159Z,1.52
2022-12-15T10:59:31.656Z,1.92
2022-12-15T11:02:29.463Z,1.42
2022-12-15T11:04:59.557Z,1.42
2022-12-15T11:07:36.765Z,2.65
2022-12-15T11:10:20.134Z,1.67
2022-12-15T11:13:14.389Z,2.20
2022-12-15T11:15:47.177Z,2.70
2022-12-15T11:18:34.008Z,2.55
2022-12-15T11:21:08.728Z,2.35
2022-12-15T11:23:56.067Z,2.00
2022-12-15T11:26:40.142Z,2.83
2022-12-15T11:29:19.553Z,1.10
2022-12-15T11:31:50.995Z,1.67
2022-12-15T11:34:22.963Z,2.58
2022-12-15T11:37:11.712Z,2.47
2022-12-15T11:40:02.175Z,2.47
2022-12-15T11:42:45.391Z,1.75
2022-12-15T11:45:23.674Z,1.40
2022-12-15T11:48:04.154Z,1.75
2022-12-15T11:50:42.436Z,1.95
2022-12-15T11:53:37.888Z,2.38
2022-12-15T11:56:21.499Z,2.28
2022-12-15T11:59:33.335Z,1.25
2022-12-15T12:02:30.471Z,2.13
2022-12-15T12:05:30.669Z,2.80
2022-12-15T12:08:13.190Z,2.05
2022-12-15T12:10:52.867Z,2.00
2022-12-15T12:13:31.616Z,2.03
2022-12-15T12:16:19.296Z,2.55
2022-12-15T12:18:56.952Z,2.17
2022-12-15T12:21:32.245Z,1.77
2022-12-15T12:24:10.225Z,2.33
2022-12-15T12:26:46.032Z,2.80
2022-12-15T12:29:22.413Z,2.35
2022-12-15T12:32:05.708Z,2.55
2022-12-15T12:34:54.965Z,2.25
2022-12-15T12:37:51.911Z,2.55
2022-12-15T12:40:36.360Z,2.53
2022-12-15T12:43:11.878Z,2.20
2022-12-15T12:45:50.708Z,1.42
2022-12-15T12:48:29.624Z,2.40
2022-12-15T12:51:19.597Z,2.40
2022-12-15T12:53:50.369Z,3.38
2022-12-15T12:56:43.012Z,3.03
2022-12-15T12:59:38.590Z,1.98
2022-12-15T13:02:48.031Z,2.50
2022-12-15T13:05:31.345Z,1.85
2022-12-15T13:08:30.180Z,2.05
2022-12-15T13:11:58.733Z,2.88
2022-12-15T13:14:48.220Z,2.08
2022-12-15T13:17:29.300Z,2.05
2022-12-15T13:20:23.310Z,2.17
2022-12-15T13:22:52.213Z,3.03
2022-12-15T13:25:53.641Z,2.83
2022-12-15T13:28:43.583Z,2.58
2022-12-15T13:31:49.034Z,2.83
2022-12-15T13:37:00.966Z,2.50
2022-12-15T13:39:59.615Z,2.00
2022-12-15T13:42:53.150Z,1.85
2022-12-15T13:45:50.617Z,2.22
2022-12-15T13:48:31.255Z,2.80
2022-12-15T13:51:22.774Z,2.17
2022-12-15T13:53:57.381Z,1.63
2022-12-15T13:59:34.645Z,2.42
2022-12-15T14:02:04.249Z,1.98
2022-12-15T14:04:32.091Z,1.90
2022-12-15T14:07:03.399Z,2.58
2022-12-15T14:09:35.118Z,2.40
2022-12-15T14:12:07.130Z,2.28
2022-12-15T14:14:43.347Z,2.80
2022-12-15T14:17:17.636Z,1.95
2022-12-15T14:19:51.093Z,2.28
2022-12-15T14:22:28.622Z,2.30
2022-12-15T14:25:03.821Z,2.28
2022-12-15T14:27:35.449Z,3.20
2022-12-15T14:30:22.725Z,3.08
2022-12-15T14:32:57.455Z,2.80
2022-12-15T14:38:04.447Z,2.38
2022-12-15T14:40:35.201Z,2.50
2022-12-15T14:43:04.319Z,2.53
2022-12-15T14:45:33.865Z,2.20
2022-12-15T14:53:34.662Z,2.58
2022-12-15T14:56:30.091Z,2.05
2022-12-15T14:59:03.612Z,2.25
2022-12-15T15:01:39.884Z,3.25
2022-12-15T15:04:28.991Z,2.90
2022-12-15T15:07:00.050Z,3.22
2022-12-15T15:09:30.843Z,3.20
2022-12-15T15:12:04.283Z,2.35
2022-12-15T15:14:38.618Z,3.42
2022-12-15T15:17:16.887Z,3.35
2022-12-15T15:19:52.064Z,2.97
2022-12-15T15:22:37.157Z,3.60
2022-12-15T15:25:27.673Z,2.63
2022-12-15T15:28:13.191Z,3.00
2022-12-15T15:33:17.039Z,2.60
2022-12-15T15:35:51.702Z,2.08
2022-12-15T15:40:56.952Z,1.25
2022-12-15T15:43:25.589Z,3.13
2022-12-15T15:46:02.453Z,2.83
2022-12-15T15:48:36.955Z,3.17
2022-12-15T15:51:07.244Z,2.72
2022-12-15T15:53:36.456Z,2.30
2022-12-15T15:56:07.718Z,3.53
2022-12-15T15:58:36.570Z,2.20
2022-12-15T16:01:11.145Z,2.65
2022-12-15T16:03:41.482Z,3.40
2022-12-15T16:06:17.911Z,2.95
2022-12-15T16:08:50.052Z,3.03
2022-12-15T16:11:18.200Z,3.85
2022-12-15T16:13:46.021Z,2.92
2022-12-15T16:16:20.497Z,2.80
2022-12-15T16:18:49.188Z,3.42
2022-12-15T16:21:25.917Z,2.65
2022-12-15T16:23:59.061Z,3.22
2022-12-15T16:26:30.915Z,2.92
2022-12-15T16:29:00.531Z,1.98
2022-12-15T16:31:41.299Z,3.25
2022-12-15T16:34:09.876Z,4.25
2022-12-15T16:36:40.043Z,2.95
2022-12-15T16:39:26.972Z,3.25
2022-12-15T16:41:57.335Z,3.65
2022-12-15T16:44:27.276Z,1.65
2022-12-15T16:46:55.143Z,2.45
2022-12-15T16:49:23.382Z,2.08
2022-12-15T16:51:54.850Z,2.70
2022-12-15T16:54:26.207Z,2.60
2022-12-15T16:56:56.932Z,2.97
2022-12-15T16:59:35.620Z,2.33
2022-12-15T17:02:28.283Z,3.00
2022-12-15T17:04:56.654Z,2.08
2022-12-15T17:07:29.425Z,3.22
2022-12-15T17:09:57.882Z,2.88
2022-12-15T17:12:25.786Z,3.03
2022-12-15T17:14:53.526Z,2.42
2022-12-15T17:17:21.352Z,3.17
2022-12-15T17:20:19.917Z,3.30
2022-12-15T17:22:39.031Z,3.05
2022-12-15T17:25:07.446Z,2.65
2022-12-15T17:27:35.211Z,2.60
2022-12-15T17:30:03.683Z,2.75
2022-12-15T17:32:31.592Z,3.38
2022-12-15T17:34:59.354Z,2.80
2022-12-15T17:37:33.429Z,2.53
2022-12-15T17:40:14.533Z,3.50
2022-12-15T17:42:43.135Z,2.80
2022-12-15T17:45:21.237Z,2.25
2022-12-15T17:47:49.043Z,2.50
2022-12-15T17:50:17.854Z,2.17
2022-12-15T17:52:48.311Z,2.72
2022-12-15T17:55:34.744Z,2.60
2022-12-15T17:58:07.334Z,2.75
2022-12-15T18:00:35.936Z,3.53
2022-12-15T18:03:04.090Z,2.90
2022-12-15T18:05:32.495Z,2.53
2022-12-15T18:08:04.343Z,2.72
2022-12-15T18:10:38.200Z,2.88
2022-12-15T18:13:17.775Z,3.80
2022-12-15T18:15:46.606Z,3.30
2022-12-15T18:18:15.432Z,2.90
2022-12-15T18:20:43.386Z,3.03
2022-12-15T18:23:15.325Z,3.25
2022-12-15T18:25:46.111Z,2.55
2022-12-15T18:28:22.775Z,2.28
2022-12-15T18:30:53.444Z,2.80
2022-12-15T18:33:22.922Z,3.30
2022-12-15T18:35:52.527Z,2.47
2022-12-15T18:38:23.254Z,3.63
2022-12-15T18:40:57.022Z,3.47
2022-12-15T18:43:29.426Z,2.35
2022-12-15T18:45:58.032Z,3.55
2022-12-15T18:48:28.598Z,3.25
2022-12-15T18:51:00.343Z,3.17
2022-12-15T18:53:34.755Z,3.45
2022-12-15T18:56:06.959Z,2.28
2022-12-15T18:58:39.342Z,2.85
2022-12-15T19:01:09.336Z,2.30
2022-12-15T19:03:38.614Z,4.18
2022-12-15T19:06:18.546Z,2.65
2022-12-15T19:08:51.054Z,2.63
2022-12-15T19:11:30.772Z,4.03
2022-12-15T19:13:59.240Z,2.60
2022-12-15T19:16:47.879Z,3.30
2022-12-15T19:19:32.918Z,3.13
2022-12-15T19:24:55.639Z,3.97
2022-12-15T19:27:27.082Z,3.95
2022-12-15T19:29:56.098Z,3.22
2022-12-15T19:32:26.612Z,4.25
2022-12-15T19:34:54.383Z,4.20
2022-12-15T19:37:28.667Z,3.00
2022-12-15T19:39:59.831Z,3.92
2022-12-15T19:42:33.512Z,3.42
2022-12-15T19:45:01.847Z,3.20
2022-12-15T19:47:29.933Z,4.60
2022-12-15T19:49:57.624Z,3.50
2022-12-15T19:52:25.763Z,4.90
2022-12-15T19:54:53.579Z,3.58
2022-12-15T19:57:21.568Z,4.20
2022-12-15T19:59:50.642Z,3.13
2022-12-15T20:02:20.401Z,3.40
2022-12-15T20:04:49.679Z,3.45
2022-12-15T20:07:23.427Z,2.97
2022-12-15T20:09:51.266Z,4.47
2022-12-15T20:12:22.075Z,2.92
2022-12-15T20:14:51.214Z,3.28
2022-12-15T20:17:18.922Z,3.05
2022-12-15T20:19:46.651Z,3.35
2022-12-15T20:22:17.242Z,3.63
2022-12-15T20:24:46.050Z,2.58
2022-12-15T20:27:16.134Z,4.45
2022-12-15T20:29:45.038Z,2.88
2022-12-15T20:32:18.428Z,3.70
2022-12-15T20:34:48.645Z,2.92
2022-12-15T20:37:22.447Z,3.08
2022-12-15T20:39:55.648Z,3.17
2022-12-15T20:42:25.407Z,3.55
2022-12-15T20:44:54.374Z,2.90
2022-12-15T20:47:27.238Z,3.10
2022-12-15T20:49:56.725Z,3.40
2022-12-15T20:52:27.277Z,2.45
2022-12-15T20:54:55.723Z,2.67
2022-12-15T20:57:23.623Z,3.67
2022-12-15T20:59:51.351Z,3.20
2022-12-15T21:02:21.917Z,2.63
2022-12-15T21:04:52.055Z,3.22
2022-12-15T21:07:19.836Z,2.60
2022-12-15T21:09:47.600Z,2.28
2022-12-15T21:12:20.793Z,3.38
2022-12-15T21:14:49.263Z,2.60
2022-12-15T21:17:19.066Z,2.75
2022-12-15T21:19:47.256Z,3.30
2022-12-15T21:22:21.823Z,2.25
2022-12-15T21:27:20.013Z,2.88
2022-12-15T21:29:52.232Z,1.98
2022-12-15T21:32:21.604Z,4.47
2022-12-15T21:34:51.748Z,2.55
2022-12-15T21:37:29.404Z,2.30
2022-12-15T21:39:59.312Z,3.17
2022-12-15T21:42:27.746Z,3.38
2022-12-15T21:44:55.480Z,3.35
2022-12-15T21:47:52.150Z,2.80
2022-12-15T21:50:19.726Z,2.25
2022-12-15T21:52:49.213Z,2.67
2022-12-15T21:55:18.535Z,2.78
2022-12-15T21:57:46.685Z,2.75
2022-12-15T22:00:18.140Z,2.85
2022-12-15T22:02:47.915Z,2.70
2022-12-15T22:05:22.453Z,2.63
2022-12-15T22:07:52.721Z,2.47
2022-12-15T22:10:20.434Z,3.40
2022-12-15T22:12:59.069Z,2.40
2022-12-15T22:15:29.638Z,3.00
2022-12-15T22:17:57.483Z,2.88
2022-12-15T22:20:26.489Z,2.20
2022-12-15T22:22:55.543Z,1.73
2022-12-15T22:25:26.712Z,2.72
2022-12-15T22:30:42.474Z,2.35
2022-12-15T22:33:21.501Z,2.63
2022-12-15T22:35:51.915Z,1.88
2022-12-15T22:38:24.203Z,1.83
2022-12-15T22:40:55.590Z,2.60
2022-12-15T22:43:31.084Z,2.45
2022-12-15T22:45:58.954Z,1.50
2022-12-15T22:48:34.050Z,2.17
2022-12-15T22:51:02.834Z,2.42
2022-12-15T22:53:34.367Z,2.45
2022-12-15T22:56:07.732Z,1.80
2022-12-15T22:58:42.176Z,2.58
2022-12-15T23:01:11.020Z,2.10
2022-12-15T23:03:38.875Z,2.28
2022-12-15T23:06:07.230Z,1.92
2022-12-15T23:08:36.302Z,2.03
2022-12-15T23:11:21.628Z,2.33
2022-12-15T23:13:49.415Z,2.28
2022-12-15T23:16:21.241Z,2.72
2022-12-15T23:18:51.740Z,2.38
2022-12-15T23:21:20.929Z,2.45
2022-12-15T23:23:50.277Z,3.10
2022-12-15T23:26:20.895Z,2.33
2022-12-15T23:28:49.330Z,2.30
2022-12-15T23:31:17.354Z,2.45
2022-12-15T23:33:45.647Z,2.05
2022-12-15T23:36:14.759Z,2.50
2022-12-15T23:38:42.731Z,2.78
2022-12-15T23:41:17.601Z,2.83
2022-12-15T23:43:45.546Z,2.60
2022-12-15T23:46:15.071Z,2.50
2022-12-15T23:48:44.553Z,1.80
2022-12-15T23:51:15.291Z,2.70
2022-12-15T23:53:46.463Z,2.35
2022-12-15T23:56:18.921Z,1.90
2022-12-15T23:58:49.389Z,1.60
